Aérodrome :
LOGIN :

S'inscrire | Disclaimer

   EN    FR    IT 

 










Légende :    VFR   VFR Marginal   IFR   IFR Intensif   IFR Très Intensif
Visi : 
Plafond : 
>= 8 km
>= 3000ft
5 à 8 km
1000 à 3000 ft
1500m à 5 km
500 à 1000 ft
800 à 1500m
200 à 500 ft
< 800m
< 200 ft
Symboles :   Orages  Brouillard  Fortes neiges  Fortes précipitations  Vent > 20 kt
SIGMETs :   Divers  Orages  Givrage  Turbulence  Onde Orograph.  Cendres Volcan.







- Altitude de l'aérodrome : 70 ft
- Code IATA : LEI


LEAM - Almeria

DERNIER METAR :
  • 251130Z 19005KT 100V230 CAVOK 15/08 Q1012

METARs EXPIRÉS :
  • 251100Z 18004KT 130V230 CAVOK 14/07 Q1012
  • 251030Z VRB02KT CAVOK 13/07 Q1012
  • 251000Z VRB02KT CAVOK 13/07 Q1012
  • 250930Z 16003KT 110V200 CAVOK 13/06 Q1012
  • 250900Z 00000KT CAVOK 13/06 Q1012

TAF TAF LEAM
Valide du 25 à 09h jusqu'au 26 à 09h UTC


250800Z 2509/2609 34010KT 9999 FEW035 TX15/2515Z TN08/2607Z
BECMG 2509/2512 20010KT
BECMG 2518/2520 34007KT
Pas de NOTAMs connus pour ce terrain.
2 SIGMETs publiés pour la FIR Madrid (LECM) :
 
Turbulence forte
LECM SIGMET 3 VALID 251200/251600 LEVA
LECM MADRID FIR/UIR SEV TURB FCST WI N3902 W00120 - N4016 W00650 - N3815 W00705 - N3726 W00144 - N3902 W00120 FL200/300 MOV S 10KT NC=
Turbulence forte
LECM SIGMET 2 VALID 250800/251200 LEVA
LECM MADRID FIR/UIR SEV TURB FCST WI N4011 W00057 - N4110 W00637 - N3919 W00715 - N3801 W00131 - N4011 W00057 FL200/300 MOV S 10KT NC=



MET'MAP, la Météo Aéronautique d'un coup d'oeil ! - Copyright ORBIFLY Décembre 2007 - Disclaimer

ORBIFLY MET'MAP TEAM :

Programmation & Développement : Alexandra Zaïnal
Conception & Développement : Baudouin d'Aumeries
Co-Programmation & Développement : Marc-Olivier Méhu
Soutien technique & logistique : Manuel Goepfert

Contact : metmap@orbifly.com




SOURCES & CREDITS :

   NOAA